createdAt,value
2023-04-23T00:02:03.343Z,24.40
2023-04-23T00:04:34.101Z,23.35
2023-04-23T00:07:02.706Z,23.95
2023-04-23T00:09:32.504Z,27.48
2023-04-23T00:12:01.041Z,32.80
2023-04-23T00:14:28.261Z,23.50
2023-04-23T00:16:55.204Z,24.95
2023-04-23T00:19:21.803Z,25.42
2023-04-23T00:21:48.488Z,24.92
2023-04-23T00:24:15.144Z,21.92
2023-04-23T00:26:44.725Z,27.25
2023-04-23T00:29:11.385Z,25.20
2023-04-23T00:31:38.124Z,24.30
2023-04-23T00:34:04.780Z,29.83
2023-04-23T00:36:31.447Z,25.38
2023-04-23T00:38:58.061Z,26.67
2023-04-23T00:41:25.898Z,22.10
2023-04-23T00:43:53.352Z,24.23
2023-04-23T00:46:20.367Z,21.42
2023-04-23T00:48:47.688Z,24.20
2023-04-23T00:51:16.585Z,20.38
2023-04-23T00:53:43.342Z,28.15
2023-04-23T00:56:10.638Z,25.05
2023-04-23T00:58:37.875Z,25.30
2023-04-23T01:01:04.971Z,21.13
2023-04-23T01:03:32.821Z,25.80
2023-04-23T01:06:00.010Z,28.00
2023-04-23T01:08:27.117Z,26.00
2023-04-23T01:10:54.708Z,32.00
2023-04-23T01:13:22.629Z,29.38
2023-04-23T01:15:49.722Z,23.38
2023-04-23T01:18:16.370Z,25.08
2023-04-23T01:20:43.827Z,31.60
2023-04-23T01:23:10.697Z,28.77
2023-04-23T01:25:37.784Z,25.02
2023-04-23T01:28:06.710Z,25.85
2023-04-23T01:30:33.893Z,26.60
2023-04-23T01:33:01.856Z,24.08
2023-04-23T01:35:29.982Z,26.58
2023-04-23T01:37:59.126Z,28.15
2023-04-23T01:40:25.841Z,24.63
2023-04-23T01:42:52.717Z,25.33
2023-04-23T01:45:19.812Z,26.58
2023-04-23T01:47:48.062Z,24.25
2023-04-23T01:50:15.423Z,29.85
2023-04-23T01:52:45.846Z,21.85
2023-04-23T01:55:12.556Z,25.83
2023-04-23T01:57:39.175Z,23.50
2023-04-23T02:00:09.270Z,33.95
2023-04-23T02:02:36.254Z,32.90
2023-04-23T02:05:04.831Z,23.63
2023-04-23T02:07:32.550Z,24.00
2023-04-23T02:09:59.415Z,22.10
2023-04-23T02:12:29.020Z,31.50
2023-04-23T02:14:55.713Z,29.20
2023-04-23T02:17:25.571Z,27.27
2023-04-23T02:19:52.443Z,28.48
2023-04-23T02:22:19.082Z,28.55
2023-04-23T02:24:47.313Z,21.92
2023-04-23T02:27:14.035Z,24.65
2023-04-23T02:29:41.302Z,26.08
2023-04-23T02:32:08.880Z,25.85
2023-04-23T02:34:38.944Z,26.08
2023-04-23T02:37:05.935Z,22.27
2023-04-23T02:39:34.802Z,21.95
2023-04-23T02:42:02.074Z,26.60
2023-04-23T02:44:28.731Z,26.45
2023-04-23T02:46:56.446Z,28.98
2023-04-23T02:49:23.118Z,21.77
2023-04-23T02:51:49.816Z,26.60
2023-04-23T02:54:17.092Z,23.70
2023-04-23T02:56:43.963Z,26.60
2023-04-23T02:59:10.902Z,24.30
2023-04-23T03:01:37.522Z,28.77
2023-04-23T03:04:04.722Z,27.08
2023-04-23T03:06:35.772Z,22.52
2023-04-23T03:09:03.053Z,23.58
2023-04-23T03:11:29.729Z,27.40
2023-04-23T03:13:56.401Z,22.52
2023-04-23T03:16:23.075Z,23.48
2023-04-23T03:18:50.023Z,21.88
2023-04-23T03:21:16.672Z,26.05
2023-04-23T03:23:43.403Z,27.77
2023-04-23T03:26:11.146Z,30.33
2023-04-23T03:28:37.713Z,35.40
2023-04-23T03:31:04.571Z,30.50
2023-04-23T03:33:31.298Z,27.52
2023-04-23T03:35:58.452Z,27.05
2023-04-23T03:38:25.120Z,27.08
2023-04-23T03:40:51.770Z,25.88
2023-04-23T03:43:18.510Z,24.10
2023-04-23T03:45:45.369Z,23.92
2023-04-23T03:48:11.970Z,27.52
2023-04-23T03:50:40.631Z,27.25
2023-04-23T03:53:08.263Z,22.45
2023-04-23T03:55:34.874Z,26.95
2023-04-23T03:58:03.171Z,31.95
2023-04-23T04:00:29.956Z,30.77
2023-04-23T04:02:56.761Z,27.83
2023-04-23T04:05:23.688Z,32.42
2023-04-23T04:07:50.366Z,25.58
2023-04-23T04:10:17.080Z,29.15
2023-04-23T04:12:45.645Z,27.05
2023-04-23T04:15:12.315Z,27.05
2023-04-23T04:17:38.998Z,26.30
2023-04-23T04:20:08.548Z,28.60
2023-04-23T04:22:35.235Z,24.48
2023-04-23T04:25:01.991Z,32.50
2023-04-23T04:27:28.628Z,24.63
2023-04-23T04:29:58.260Z,31.98
2023-04-23T04:32:27.160Z,26.48
2023-04-23T04:34:54.115Z,31.33
2023-04-23T04:37:23.698Z,31.40
2023-04-23T04:39:50.340Z,33.22
2023-04-23T04:42:17.051Z,28.15
2023-04-23T04:44:43.996Z,33.85
2023-04-23T04:47:10.849Z,28.50
2023-04-23T04:49:38.406Z,24.05
2023-04-23T04:52:05.162Z,32.60
2023-04-23T04:54:31.863Z,30.67
2023-04-23T04:56:58.643Z,27.70
2023-04-23T04:59:25.287Z,26.65
2023-04-23T05:01:51.960Z,32.72
2023-04-23T05:04:18.749Z,31.33
2023-04-23T05:06:48.069Z,33.58
2023-04-23T05:09:14.698Z,24.55
2023-04-23T05:11:41.560Z,24.38
2023-04-23T05:14:08.249Z,27.23
2023-04-23T05:16:35.037Z,25.75
2023-04-23T05:19:01.701Z,26.13
2023-04-23T05:21:28.497Z,24.95
2023-04-23T05:23:55.622Z,25.25
2023-04-23T05:26:22.335Z,20.83
2023-04-23T05:28:49.131Z,23.30
2023-04-23T05:31:15.935Z,23.60
2023-04-23T05:33:49.713Z,21.63
2023-04-23T05:36:17.838Z,21.30
2023-04-23T05:38:44.527Z,22.92
2023-04-23T05:41:11.511Z,26.13
2023-04-23T05:43:38.233Z,21.80
2023-04-23T05:46:07.453Z,23.08
2023-04-23T05:48:34.786Z,20.63
2023-04-23T05:51:04.252Z,19.70
2023-04-23T05:53:30.993Z,22.42
2023-04-23T05:55:57.970Z,24.90
2023-04-23T05:58:24.600Z,21.80
2023-04-23T06:00:53.067Z,25.92
2023-04-23T06:03:20.069Z,21.48
2023-04-23T06:05:47.073Z,22.42
2023-04-23T06:08:14.013Z,25.17
2023-04-23T06:10:40.788Z,23.60
2023-04-23T06:13:09.550Z,25.30
2023-04-23T06:15:36.152Z,18.17
2023-04-23T06:18:02.909Z,18.85
2023-04-23T06:20:30.178Z,25.40
2023-04-23T06:22:56.799Z,16.98
2023-04-23T06:25:23.466Z,18.98
2023-04-23T06:27:50.112Z,18.42
2023-04-23T06:30:16.754Z,20.92
2023-04-23T06:32:43.536Z,19.02
2023-04-23T06:35:10.303Z,16.38
2023-04-23T06:37:36.954Z,19.73
2023-04-23T06:40:03.909Z,19.05
2023-04-23T06:42:30.851Z,18.15
2023-04-23T06:44:59.376Z,17.75
2023-04-23T06:47:26.096Z,17.48
2023-04-23T06:49:52.749Z,20.40
2023-04-23T06:52:19.452Z,17.33
2023-04-23T06:54:46.365Z,17.02
2023-04-23T06:57:12.987Z,18.77
2023-04-23T06:59:39.673Z,14.75
2023-04-23T07:02:06.566Z,15.63
2023-04-23T07:04:33.523Z,13.70
2023-04-23T07:07:00.539Z,17.08
2023-04-23T07:09:28.578Z,20.15
2023-04-23T07:11:55.176Z,16.88
2023-04-23T07:14:21.849Z,16.05
2023-04-23T07:16:48.497Z,16.75
2023-04-23T07:19:15.218Z,16.15
2023-04-23T07:21:42.304Z,19.85
2023-04-23T07:24:09.006Z,17.92
2023-04-23T07:26:36.308Z,15.27
2023-04-23T07:29:04.858Z,17.50
2023-04-23T07:31:31.525Z,21.98
2023-04-23T07:33:58.198Z,15.23
2023-04-23T07:36:24.935Z,14.65
2023-04-23T07:38:51.570Z,14.88
2023-04-23T07:41:18.368Z,15.43
2023-04-23T07:43:47.995Z,12.73
2023-04-23T07:46:17.194Z,11.05
2023-04-23T07:48:46.504Z,12.75
2023-04-23T07:51:13.158Z,12.48
2023-04-23T07:53:39.917Z,13.65
2023-04-23T07:56:06.710Z,9.63
2023-04-23T07:58:33.506Z,14.35
2023-04-23T08:01:00.110Z,10.27
2023-04-23T08:03:29.064Z,12.13
2023-04-23T08:05:56.958Z,11.07
2023-04-23T08:08:23.549Z,11.93
2023-04-23T08:10:50.224Z,12.13
2023-04-23T08:13:16.924Z,9.13
2023-04-23T08:15:43.604Z,10.00
2023-04-23T08:18:10.336Z,10.27
2023-04-23T08:20:37.120Z,11.93
2023-04-23T08:23:04.786Z,11.35
2023-04-23T08:25:32.798Z,9.95
2023-04-23T08:27:59.601Z,10.18
2023-04-23T08:30:26.385Z,10.98
2023-04-23T08:32:54.005Z,10.18
2023-04-23T08:35:21.344Z,10.07
2023-04-23T08:37:47.880Z,9.57
2023-04-23T08:40:14.919Z,9.32
2023-04-23T08:42:53.484Z,9.68
2023-04-23T08:45:22.218Z,9.77
2023-04-23T08:47:49.164Z,9.52
2023-04-23T08:50:20.518Z,8.55
2023-04-23T08:52:51.571Z,12.20
2023-04-23T08:55:18.974Z,11.52
2023-04-23T08:57:47.028Z,13.65
2023-04-23T09:00:15.827Z,10.87
2023-04-23T09:02:47.053Z,9.33
2023-04-23T09:05:14.530Z,10.90
2023-04-23T09:07:41.894Z,11.23
2023-04-23T09:10:11.728Z,9.52
2023-04-23T09:12:43.429Z,11.55
2023-04-23T09:15:11.083Z,11.82
2023-04-23T09:17:44.028Z,12.85
2023-04-23T09:20:11.960Z,13.45
2023-04-23T09:22:56.835Z,11.07
2023-04-23T09:25:24.511Z,9.55
2023-04-23T09:27:53.203Z,12.45
2023-04-23T09:30:20.263Z,13.68
2023-04-23T09:32:48.078Z,15.02
2023-04-23T09:35:17.082Z,10.77
2023-04-23T09:37:49.120Z,11.73
2023-04-23T09:40:21.051Z,11.23
2023-04-23T09:42:57.568Z,10.00
2023-04-23T09:45:25.910Z,10.05
2023-04-23T09:47:57.713Z,10.18
2023-04-23T09:50:36.974Z,8.25
2023-04-23T09:53:04.828Z,10.33
2023-04-23T09:55:40.854Z,9.32
2023-04-23T09:58:15.780Z,16.65
2023-04-23T10:00:45.785Z,8.32
2023-04-23T10:03:12.893Z,7.88
2023-04-23T10:08:14.074Z,10.85
2023-04-23T10:10:55.079Z,8.23
2023-04-23T10:13:28.268Z,8.57
2023-04-23T10:15:55.204Z,7.68
2023-04-23T10:18:24.210Z,9.00
2023-04-23T10:20:52.427Z,9.73
2023-04-23T10:23:23.691Z,8.98
2023-04-23T10:26:00.393Z,6.30
2023-04-23T10:28:33.143Z,9.07
2023-04-23T10:31:04.072Z,9.30
2023-04-23T10:33:39.780Z,6.88
2023-04-23T10:36:12.968Z,7.30
2023-04-23T10:38:54.872Z,9.95
2023-04-23T10:41:28.979Z,8.93
2023-04-23T10:43:55.772Z,8.35
2023-04-23T10:46:33.244Z,8.15
2023-04-23T10:49:16.412Z,8.00
2023-04-23T10:52:17.684Z,10.13
2023-04-23T10:54:34.718Z,8.82
2023-04-23T10:57:03.816Z,7.50
2023-04-23T10:59:32.219Z,7.15
2023-04-23T11:02:07.321Z,8.48
2023-04-23T11:04:35.837Z,10.48
2023-04-23T11:07:10.469Z,10.07
2023-04-23T11:09:53.732Z,8.23
2023-04-23T11:12:27.073Z,8.05
2023-04-23T11:14:55.266Z,7.82
2023-04-23T11:17:34.154Z,7.80
2023-04-23T11:20:14.183Z,10.68
2023-04-23T11:22:44.953Z,10.38
2023-04-23T11:25:19.273Z,11.07
2023-04-23T11:27:47.238Z,10.48
2023-04-23T11:30:25.589Z,10.75
2023-04-23T11:32:54.618Z,10.25
2023-04-23T11:35:24.714Z,8.27
2023-04-23T11:37:51.393Z,13.10
2023-04-23T11:40:19.845Z,7.63
2023-04-23T11:42:51.670Z,11.52
2023-04-23T11:45:23.260Z,10.90
2023-04-23T11:47:57.133Z,9.15
2023-04-23T11:50:25.286Z,11.48
2023-04-23T11:52:52.938Z,9.37
2023-04-23T11:55:20.779Z,8.05
2023-04-23T11:57:49.928Z,8.73
2023-04-23T12:00:19.559Z,11.50
2023-04-23T12:03:03.488Z,10.70
2023-04-23T12:05:33.688Z,9.73
2023-04-23T12:08:17.348Z,7.53
2023-04-23T12:10:48.151Z,12.55
2023-04-23T12:13:21.118Z,11.50
2023-04-23T12:15:52.683Z,10.83
2023-04-23T12:18:19.769Z,11.57
2023-04-23T12:20:46.625Z,7.47
2023-04-23T12:23:13.265Z,7.53
2023-04-23T12:25:41.022Z,16.70
2023-04-23T12:28:08.002Z,8.33
2023-04-23T12:30:43.404Z,9.02
2023-04-23T12:33:12.085Z,10.73
2023-04-23T12:35:42.521Z,9.35
2023-04-23T12:38:25.695Z,9.65
2023-04-23T12:40:57.137Z,10.60
2023-04-23T12:43:25.582Z,11.15
2023-04-23T12:45:55.887Z,8.80
2023-04-23T12:48:22.528Z,9.50
2023-04-23T12:50:49.348Z,14.50
2023-04-23T12:53:16.083Z,8.65
2023-04-23T12:55:44.421Z,8.63
2023-04-23T12:58:11.198Z,10.82
2023-04-23T13:00:37.831Z,10.87
2023-04-23T13:03:04.933Z,9.40
2023-04-23T13:05:31.511Z,12.43
2023-04-23T13:07:59.349Z,12.70
2023-04-23T13:10:26.115Z,10.27
2023-04-23T13:12:52.870Z,10.20
2023-04-23T13:15:20.288Z,11.07
2023-04-23T13:17:47.303Z,7.43
2023-04-23T13:20:13.990Z,12.60
2023-04-23T13:22:40.747Z,9.60
2023-04-23T13:25:07.587Z,12.63
2023-04-23T13:27:34.235Z,10.85
2023-04-23T13:30:01.523Z,11.20
2023-04-23T13:32:32.123Z,10.10
2023-04-23T13:35:01.887Z,8.27
2023-04-23T13:37:30.289Z,8.23
2023-04-23T13:39:57.095Z,8.48
2023-04-23T13:42:23.780Z,7.78
2023-04-23T13:44:50.742Z,8.23
2023-04-23T13:47:20.076Z,10.45
2023-04-23T13:49:48.043Z,10.77
2023-04-23T13:52:14.978Z,11.13
2023-04-23T13:54:42.310Z,11.55
2023-04-23T13:57:12.033Z,11.45
2023-04-23T13:59:38.674Z,9.10
2023-04-23T14:02:08.104Z,11.05
2023-04-23T14:04:34.756Z,9.73
2023-04-23T14:07:01.445Z,13.73
2023-04-23T14:09:29.974Z,12.07
2023-04-23T14:11:56.970Z,7.43
2023-04-23T14:14:23.619Z,14.02
2023-04-23T14:16:50.431Z,14.27
2023-04-23T14:19:17.177Z,14.38
2023-04-23T14:21:44.113Z,10.75
2023-04-23T14:24:27.630Z,12.80
2023-04-23T14:26:54.434Z,13.13
2023-04-23T14:29:32.832Z,20.65
2023-04-23T14:31:59.492Z,9.88
2023-04-23T14:34:26.154Z,13.60
2023-04-23T14:36:53.504Z,12.07
2023-04-23T14:39:22.688Z,20.27
2023-04-23T14:41:49.343Z,11.90
2023-04-23T14:44:15.940Z,11.85
2023-04-23T14:46:42.630Z,14.88
2023-04-23T14:49:09.215Z,11.18
2023-04-23T14:51:37.504Z,9.13
2023-04-23T14:54:05.048Z,17.80
2023-04-23T14:56:31.770Z,16.45
2023-04-23T14:58:58.398Z,11.25
2023-04-23T15:01:25.077Z,7.95
2023-04-23T15:03:53.567Z,11.32
2023-04-23T15:06:23.441Z,9.13
2023-04-23T15:08:50.114Z,13.10
2023-04-23T15:11:16.853Z,13.27
2023-04-23T15:14:03.893Z,12.90
2023-04-23T15:19:06.387Z,8.43
2023-04-23T15:21:33.400Z,9.75
2023-04-23T15:24:00.022Z,11.20
2023-04-23T15:33:47.893Z,10.93
2023-04-23T15:36:14.584Z,12.60
2023-04-23T15:38:41.457Z,11.20
2023-04-23T15:41:11.390Z,10.77
2023-04-23T15:43:38.011Z,15.60
2023-04-23T15:46:04.706Z,10.60
2023-04-23T15:48:31.493Z,9.68
2023-04-23T15:50:58.370Z,7.15
2023-04-23T15:53:25.092Z,9.73
2023-04-23T15:55:55.029Z,10.20
2023-04-23T15:58:24.490Z,16.40
2023-04-23T16:00:51.161Z,9.02
2023-04-23T16:03:18.029Z,15.68
2023-04-23T16:05:48.165Z,8.93
2023-04-23T16:08:16.365Z,10.57
2023-04-23T16:10:43.170Z,11.40
2023-04-23T16:13:12.681Z,13.05
2023-04-23T16:15:39.299Z,9.25
2023-04-23T16:18:06.601Z,10.85
2023-04-23T16:20:33.508Z,15.27
2023-04-23T16:23:00.249Z,8.73
2023-04-23T16:25:27.019Z,8.80
2023-04-23T16:27:54.033Z,5.47
2023-04-23T16:30:21.262Z,10.68
2023-04-23T16:32:47.946Z,7.78
2023-04-23T16:35:14.626Z,6.47
2023-04-23T16:37:41.404Z,14.90
2023-04-23T16:40:09.164Z,8.43
2023-04-23T16:42:36.058Z,7.38
2023-04-23T16:45:03.083Z,9.43
2023-04-23T16:47:29.816Z,7.35
2023-04-23T16:49:56.633Z,8.70
2023-04-23T16:52:25.459Z,8.95
2023-04-23T16:54:52.041Z,9.20
2023-04-23T16:57:18.917Z,9.25
2023-04-23T16:59:45.687Z,8.25
2023-04-23T17:02:12.582Z,9.93
2023-04-23T17:04:39.742Z,9.57
2023-04-23T17:07:07.594Z,7.80
2023-04-23T17:09:34.935Z,10.52
2023-04-23T17:12:02.248Z,11.07
2023-04-23T17:14:31.129Z,7.40
2023-04-23T17:16:57.843Z,7.65
2023-04-23T17:19:24.524Z,8.02
2023-04-23T17:21:53.485Z,15.30
2023-04-23T17:24:22.413Z,10.25
2023-04-23T17:26:51.637Z,8.00
2023-04-23T17:29:18.317Z,7.40
2023-04-23T17:31:45.393Z,10.07
2023-04-23T17:34:12.222Z,10.43
2023-04-23T17:36:38.987Z,6.38
2023-04-23T17:39:05.816Z,9.10
2023-04-23T17:41:32.584Z,13.35
2023-04-23T17:43:59.268Z,9.32
2023-04-23T17:46:26.022Z,10.45
2023-04-23T17:48:52.762Z,7.90
2023-04-23T17:51:19.509Z,10.32
2023-04-23T17:53:50.604Z,9.07
2023-04-23T17:56:17.282Z,9.90
2023-04-23T17:58:44.027Z,11.35
2023-04-23T18:01:10.841Z,10.07
2023-04-23T18:03:38.368Z,7.18
2023-04-23T18:06:05.638Z,8.57
2023-04-23T18:08:32.350Z,7.75
2023-04-23T18:10:59.557Z,8.40
2023-04-23T18:13:26.470Z,9.27
2023-04-23T18:15:53.184Z,9.43
2023-04-23T18:18:21.725Z,8.35
2023-04-23T18:20:49.294Z,9.13
2023-04-23T18:23:16.138Z,9.15
2023-04-23T18:25:42.918Z,13.55
2023-04-23T18:28:09.775Z,8.23
2023-04-23T18:30:39.437Z,10.98
2023-04-23T18:33:15.333Z,10.23
2023-04-23T18:35:45.320Z,9.77
2023-04-23T18:38:25.753Z,7.82
2023-04-23T18:40:52.474Z,10.77
2023-04-23T18:43:19.157Z,9.10
2023-04-23T18:45:47.041Z,7.13
2023-04-23T18:48:35.462Z,7.15
2023-04-23T18:51:13.513Z,9.68
2023-04-23T18:53:40.307Z,9.05
2023-04-23T18:56:10.035Z,13.75
2023-04-23T18:58:36.835Z,10.00
2023-04-23T19:01:03.905Z,7.25
2023-04-23T19:03:31.350Z,9.90
2023-04-23T19:05:58.240Z,11.25
2023-04-23T19:08:30.727Z,8.90
2023-04-23T19:10:57.543Z,6.75
2023-04-23T19:13:24.484Z,12.27
2023-04-23T19:15:51.592Z,10.75
2023-04-23T19:18:18.843Z,6.90
2023-04-23T19:20:45.545Z,10.00
2023-04-23T19:23:12.223Z,8.57
2023-04-23T19:25:38.889Z,8.70
2023-04-23T19:28:05.528Z,7.35
2023-04-23T19:30:32.478Z,9.65
2023-04-23T19:32:59.345Z,8.20
2023-04-23T19:35:26.572Z,6.43
2023-04-23T19:37:53.304Z,9.65
2023-04-23T19:40:19.986Z,7.20
2023-04-23T19:42:46.661Z,11.45
2023-04-23T19:45:15.577Z,10.27
2023-04-23T19:47:42.412Z,13.65
2023-04-23T19:50:14.042Z,9.85
2023-04-23T19:52:41.441Z,9.00
2023-04-23T19:55:10.320Z,8.23
2023-04-23T19:57:37.303Z,7.93
2023-04-23T20:00:06.624Z,8.07
2023-04-23T20:02:35.136Z,7.97
2023-04-23T20:05:02.996Z,11.40
2023-04-23T20:07:29.717Z,8.45
2023-04-23T20:09:56.373Z,9.80
2023-04-23T20:12:24.690Z,9.13
2023-04-23T20:14:51.801Z,9.07
2023-04-23T20:17:20.208Z,10.60
2023-04-23T20:19:46.884Z,7.53
2023-04-23T20:22:13.619Z,10.07
2023-04-23T20:24:42.767Z,11.23
2023-04-23T20:27:09.396Z,10.98
2023-04-23T20:29:36.087Z,10.85
2023-04-23T20:32:02.760Z,10.15
2023-04-23T20:34:29.581Z,7.68
2023-04-23T20:36:58.914Z,9.05
2023-04-23T20:39:25.661Z,8.25
2023-04-23T20:41:52.629Z,12.55
2023-04-23T20:44:22.699Z,10.18
2023-04-23T20:46:53.002Z,8.90
2023-04-23T20:49:20.075Z,7.07
2023-04-23T20:51:46.863Z,7.93
2023-04-23T20:54:13.546Z,14.52
2023-04-23T20:56:40.331Z,8.85
2023-04-23T20:59:07.040Z,13.52
2023-04-23T21:01:33.874Z,9.23
2023-04-23T21:04:05.977Z,9.82
2023-04-23T21:06:33.521Z,6.95
2023-04-23T21:09:00.191Z,10.77
2023-04-23T21:11:27.901Z,7.90
2023-04-23T21:14:00.228Z,9.25
2023-04-23T21:16:27.593Z,10.55
2023-04-23T21:18:54.250Z,8.60
2023-04-23T21:21:27.076Z,9.90
2023-04-23T21:23:53.740Z,12.02
2023-04-23T21:26:21.113Z,7.78
2023-04-23T21:28:47.781Z,11.43
2023-04-23T21:31:29.756Z,6.13
2023-04-23T21:33:56.941Z,6.63
2023-04-23T21:36:23.745Z,6.40
2023-04-23T21:38:50.557Z,10.98
2023-04-23T21:41:17.667Z,8.45
2023-04-23T21:43:44.418Z,6.88
2023-04-23T21:46:11.143Z,5.78
2023-04-23T21:48:37.875Z,9.40
2023-04-23T21:51:05.160Z,7.22
2023-04-23T21:53:31.754Z,10.05
2023-04-23T21:56:00.828Z,6.45
2023-04-23T21:58:28.039Z,10.75
2023-04-23T22:00:55.357Z,6.55
2023-04-23T22:03:30.863Z,6.90
2023-04-23T22:06:05.213Z,10.85
2023-04-23T22:08:33.079Z,6.30
2023-04-23T22:10:59.955Z,7.85
2023-04-23T22:13:26.846Z,10.05
2023-04-23T22:15:53.595Z,6.32
2023-04-23T22:18:20.665Z,8.45
2023-04-23T22:20:49.572Z,8.50
2023-04-23T22:23:16.434Z,6.95
2023-04-23T22:25:43.159Z,8.77
2023-04-23T22:28:09.783Z,8.48
2023-04-23T22:30:36.738Z,8.85
2023-04-23T22:33:04.179Z,11.35
2023-04-23T22:35:31.880Z,10.25
2023-04-23T22:37:58.707Z,10.85
2023-04-23T22:40:25.356Z,7.53
2023-04-23T22:42:52.019Z,6.95
2023-04-23T22:45:18.809Z,7.07
2023-04-23T22:47:45.516Z,11.23
2023-04-23T22:50:12.358Z,7.78
2023-04-23T22:52:39.053Z,8.90
2023-04-23T22:55:06.260Z,8.98
2023-04-23T22:57:33.017Z,10.98
2023-04-23T23:00:00.731Z,7.05
2023-04-23T23:02:27.485Z,9.80
2023-04-23T23:04:54.786Z,7.35
2023-04-23T23:07:21.711Z,7.45
2023-04-23T23:09:48.360Z,8.45
2023-04-23T23:12:15.043Z,7.50
2023-04-23T23:14:41.783Z,5.72
2023-04-23T23:17:08.459Z,7.60
2023-04-23T23:19:35.102Z,11.40
2023-04-23T23:22:01.851Z,10.00
2023-04-23T23:24:28.418Z,8.80
2023-04-23T23:26:55.050Z,7.82
2023-04-23T23:29:21.692Z,8.68
2023-04-23T23:31:48.506Z,10.82
2023-04-23T23:34:15.376Z,8.13
2023-04-23T23:36:42.096Z,8.88
2023-04-23T23:39:08.801Z,8.57
2023-04-23T23:41:35.356Z,9.02
2023-04-23T23:44:04.226Z,6.45
2023-04-23T23:46:30.888Z,9.25
2023-04-23T23:48:57.526Z,13.75
2023-04-23T23:51:24.236Z,8.50
2023-04-23T23:53:50.903Z,10.07
2023-04-23T23:56:17.639Z,7.07
2023-04-23T23:58:44.314Z,9.95
